Terminal Aerodrome Forecast
Issued by NWS

Home | Current Version | Previous Version | Text Only | Print | Product List | Glossary On
Versions: 1 2 3 4 5 6 7 8 9 10 11 12 13 14
655
FTUS45 KRIW 092328
TAFCPR
TAF
KCPR 092328Z 1000/1024 22015KT P6SM FEW250
     FM100300 22015G25KT P6SM FEW250
     FM100600 22020G35KT P6SM FEW200
     FM102200 24015G20KT P6SM BKN200=

USA.gov is the U.S. government's official web portal to all federal, state and local government web resources and services.